CheckWX is a tool to help pilots better visualize weather data.  It is not intended as a substitute for an official pre-flight weather briefing.

13:32:22 UTC

DABS TAF
Cheikh Larbi Tébessi Airport
Tébessi, Algeria
TAF DABS 271100Z 2712/2812 32008KT 9999 FEW030 BECMG 2720/2722 22006KT

Feb-27@
12:00 UTC

Feb-27 @ 12:00 UTC

Feb-27@
20:00 UTC

Feb-27 @ 20:00 UTC

TAF DABS 271100Z 2712/2812 32008KT 9999 FEW030
Wind
  • 320° at 8 KTS
Cloud Levels
  • Few at 3,000' AGL

Feb-27@
20:00 UTC

Feb-27 @ 20:00 UTC

Feb-28@
12:00 UTC

Feb-28 @ 12:00 UTC

BECMG 2720/2722 22006KT

Becoming

Becoming Conditions expected by Thu, Feb 27, 2020 @ 22:00 UTC

Wind
  • 220° at 6 KTS
Cloud Levels
  • Few at 3,000' AGL